Decoded Metar for EIKN (CONNAUGHT in IRELAND) (IATA:NOC) | Meteo·Mobile Aviation Weather
aviador You're here:

EIKN Decoded Metar

CONNAUGHT in IRELAND
Report Time2018-10-19 08:30:00
UTC Time2018-10-19 08:59:08
Flight Rules lifr LIFR
Wind180° at 08 kt
W.Decomp.*RWY 27: 0.8 kt HW 8 kt LCW
W.Rank180° ranks 14
Current wind is below 180° avg. (9.9)
Visibility0500 m
Phenomena:Fog
Clouds:N/A
Ceiling200 ft
Temp09°C (ISA -6)
Dew Point09°C (100% RH)
AAT5.9°C
QNH1021 hPa
Density Alt-574 ft
Elevation210 ft
Report Wrong Elevation
Raw Report
METAR EIKN 190830Z 18008KT 140V230 0500 R26/0700 FG VV002 09/09 Q1021
BECMG 4000=

Extra information for EIKN:More info

Metar Taf Metar & Taf Last 4 Metars F.Rules Stats Wind Profile Meteogram Temp Stats Airport Information Weather charts Add Link Nearby VenuesMetar ALERT Operation Metar Decoded Social comments